sensor_id;sensor_type;location;lat;lon;timestamp;P1;durP1;ratioP1;P2;durP2;ratioP2
74650;SDS011;63169;46.042;14.592;2022-10-31T00:01:20;9.73;;;5.32;;
74650;SDS011;63169;46.042;14.592;2022-10-31T00:03:48;10.98;;;5.75;;
74650;SDS011;63169;46.042;14.592;2022-10-31T00:06:13;8.85;;;6.63;;
74650;SDS011;63169;46.042;14.592;2022-10-31T00:08:39;10.32;;;6.05;;
74650;SDS011;63169;46.042;14.592;2022-10-31T00:11:08;10.00;;;6.45;;
74650;SDS011;63169;46.042;14.592;2022-10-31T00:13:34;12.48;;;5.88;;
74650;SDS011;63169;46.042;14.592;2022-10-31T00:16:00;10.70;;;4.85;;
74650;SDS011;63169;46.042;14.592;2022-10-31T00:18:25;10.48;;;5.00;;
74650;SDS011;63169;46.042;14.592;2022-10-31T00:20:58;11.10;;;5.65;;
74650;SDS011;63169;46.042;14.592;2022-10-31T00:23:26;9.18;;;4.60;;
74650;SDS011;63169;46.042;14.592;2022-10-31T00:25:52;7.30;;;3.80;;
74650;SDS011;63169;46.042;14.592;2022-10-31T00:28:17;9.93;;;4.38;;
74650;SDS011;63169;46.042;14.592;2022-10-31T00:30:42;16.42;;;6.95;;
74650;SDS011;63169;46.042;14.592;2022-10-31T00:33:08;12.02;;;6.82;;
74650;SDS011;63169;46.042;14.592;2022-10-31T00:35:33;13.93;;;7.63;;
74650;SDS011;63169;46.042;14.592;2022-10-31T00:37:58;13.40;;;7.40;;
74650;SDS011;63169;46.042;14.592;2022-10-31T00:40:24;14.75;;;8.75;;
74650;SDS011;63169;46.042;14.592;2022-10-31T00:42:49;14.73;;;7.63;;
74650;SDS011;63169;46.042;14.592;2022-10-31T00:45:15;14.98;;;6.95;;
74650;SDS011;63169;46.042;14.592;2022-10-31T00:47:40;15.35;;;7.28;;
74650;SDS011;63169;46.042;14.592;2022-10-31T00:50:06;12.20;;;6.38;;
74650;SDS011;63169;46.042;14.592;2022-10-31T00:52:32;10.95;;;6.65;;
74650;SDS011;63169;46.042;14.592;2022-10-31T00:54:57;12.68;;;5.88;;
74650;SDS011;63169;46.042;14.592;2022-10-31T00:57:23;14.13;;;5.45;;
74650;SDS011;63169;46.042;14.592;2022-10-31T00:59:48;11.40;;;6.07;;
74650;SDS011;63169;46.042;14.592;2022-10-31T01:02:13;12.77;;;5.63;;
74650;SDS011;63169;46.042;14.592;2022-10-31T01:04:39;9.52;;;5.15;;
74650;SDS011;63169;46.042;14.592;2022-10-31T01:07:04;10.75;;;5.85;;
74650;SDS011;63169;46.042;14.592;2022-10-31T01:09:29;9.88;;;4.60;;
74650;SDS011;63169;46.042;14.592;2022-10-31T01:11:55;9.55;;;4.07;;
74650;SDS011;63169;46.042;14.592;2022-10-31T01:14:20;6.45;;;4.13;;
74650;SDS011;63169;46.042;14.592;2022-10-31T01:16:45;8.80;;;4.07;;
74650;SDS011;63169;46.042;14.592;2022-10-31T01:19:11;7.10;;;3.72;;
74650;SDS011;63169;46.042;14.592;2022-10-31T01:21:36;7.03;;;4.25;;
74650;SDS011;63169;46.042;14.592;2022-10-31T01:24:01;7.88;;;4.68;;
74650;SDS011;63169;46.042;14.592;2022-10-31T01:26:28;10.38;;;5.45;;
74650;SDS011;63169;46.042;14.592;2022-10-31T01:28:59;9.15;;;6.43;;
74650;SDS011;63169;46.042;14.592;2022-10-31T01:31:27;10.77;;;5.38;;
74650;SDS011;63169;46.042;14.592;2022-10-31T01:33:54;11.90;;;6.07;;
74650;SDS011;63169;46.042;14.592;2022-10-31T01:36:21;11.52;;;5.53;;
74650;SDS011;63169;46.042;14.592;2022-10-31T01:38:48;14.80;;;6.28;;
74650;SDS011;63169;46.042;14.592;2022-10-31T01:41:15;10.18;;;5.93;;
74650;SDS011;63169;46.042;14.592;2022-10-31T01:43:46;20.08;;;7.82;;
74650;SDS011;63169;46.042;14.592;2022-10-31T01:46:34;14.40;;;6.60;;
74650;SDS011;63169;46.042;14.592;2022-10-31T01:49:04;17.35;;;6.47;;
74650;SDS011;63169;46.042;14.592;2022-10-31T01:51:34;15.63;;;7.30;;
74650;SDS011;63169;46.042;14.592;2022-10-31T01:54:07;17.67;;;6.68;;
74650;SDS011;63169;46.042;14.592;2022-10-31T01:56:34;10.50;;;5.40;;
74650;SDS011;63169;46.042;14.592;2022-10-31T01:59:04;15.27;;;7.53;;
74650;SDS011;63169;46.042;14.592;2022-10-31T02:01:30;15.45;;;5.38;;
74650;SDS011;63169;46.042;14.592;2022-10-31T02:03:56;9.80;;;5.88;;
74650;SDS011;63169;46.042;14.592;2022-10-31T02:06:32;13.02;;;5.05;;
74650;SDS011;63169;46.042;14.592;2022-10-31T02:09:04;11.50;;;4.97;;
74650;SDS011;63169;46.042;14.592;2022-10-31T02:11:30;14.57;;;5.32;;
74650;SDS011;63169;46.042;14.592;2022-10-31T02:13:56;12.73;;;5.88;;
74650;SDS011;63169;46.042;14.592;2022-10-31T02:16:23;12.07;;;5.35;;
74650;SDS011;63169;46.042;14.592;2022-10-31T02:18:48;13.48;;;5.70;;
74650;SDS011;63169;46.042;14.592;2022-10-31T02:21:15;13.32;;;6.45;;
74650;SDS011;63169;46.042;14.592;2022-10-31T02:26:26;12.95;;;5.35;;
74650;SDS011;63169;46.042;14.592;2022-10-31T02:34:58;12.18;;;6.32;;
74650;SDS011;63169;46.042;14.592;2022-10-31T02:37:38;13.15;;;6.38;;
74650;SDS011;63169;46.042;14.592;2022-10-31T02:43:08;12.80;;;5.78;;
74650;SDS011;63169;46.042;14.592;2022-10-31T02:48:14;13.38;;;5.43;;
74650;SDS011;63169;46.042;14.592;2022-10-31T02:50:45;10.32;;;5.28;;
74650;SDS011;63169;46.042;14.592;2022-10-31T02:53:15;11.32;;;5.05;;
74650;SDS011;63169;46.042;14.592;2022-10-31T02:55:47;12.50;;;6.63;;
74650;SDS011;63169;46.042;14.592;2022-10-31T02:58:16;12.02;;;4.45;;
74650;SDS011;63169;46.042;14.592;2022-10-31T03:00:50;9.82;;;5.40;;
74650;SDS011;63169;46.042;14.592;2022-10-31T03:04:02;11.63;;;5.88;;
74650;SDS011;63169;46.042;14.592;2022-10-31T03:06:41;12.13;;;5.53;;
74650;SDS011;63169;46.042;14.592;2022-10-31T03:09:13;10.13;;;4.07;;
74650;SDS011;63169;46.042;14.592;2022-10-31T03:14:47;10.50;;;5.15;;
74650;SDS011;63169;46.042;14.592;2022-10-31T03:17:35;10.27;;;4.20;;
74650;SDS011;63169;46.042;14.592;2022-10-31T03:20:02;12.40;;;4.50;;
74650;SDS011;63169;46.042;14.592;2022-10-31T03:22:29;9.68;;;4.30;;
74650;SDS011;63169;46.042;14.592;2022-10-31T03:24:56;13.35;;;4.65;;
74650;SDS011;63169;46.042;14.592;2022-10-31T03:27:23;9.95;;;4.68;;
74650;SDS011;63169;46.042;14.592;2022-10-31T03:29:51;12.40;;;4.78;;
74650;SDS011;63169;46.042;14.592;2022-10-31T03:32:19;10.55;;;5.45;;
74650;SDS011;63169;46.042;14.592;2022-10-31T03:34:46;13.30;;;4.97;;
74650;SDS011;63169;46.042;14.592;2022-10-31T03:37:14;9.15;;;4.40;;
74650;SDS011;63169;46.042;14.592;2022-10-31T03:39:42;9.77;;;4.55;;
74650;SDS011;63169;46.042;14.592;2022-10-31T03:44:41;11.52;;;4.63;;
74650;SDS011;63169;46.042;14.592;2022-10-31T03:47:09;11.80;;;4.50;;
74650;SDS011;63169;46.042;14.592;2022-10-31T03:49:35;8.93;;;4.45;;
74650;SDS011;63169;46.042;14.592;2022-10-31T03:52:02;7.93;;;5.65;;
74650;SDS011;63169;46.042;14.592;2022-10-31T03:59:59;9.00;;;5.03;;
74650;SDS011;63169;46.042;14.592;2022-10-31T04:02:31;10.23;;;5.22;;
74650;SDS011;63169;46.042;14.592;2022-10-31T04:04:57;8.48;;;4.90;;
74650;SDS011;63169;46.042;14.592;2022-10-31T04:07:25;8.73;;;4.07;;
74650;SDS011;63169;46.042;14.592;2022-10-31T04:09:54;9.45;;;4.20;;
74650;SDS011;63169;46.042;14.592;2022-10-31T04:12:20;10.65;;;4.20;;
74650;SDS011;63169;46.042;14.592;2022-10-31T04:14:47;9.02;;;5.25;;
74650;SDS011;63169;46.042;14.592;2022-10-31T04:17:14;10.77;;;6.05;;
74650;SDS011;63169;46.042;14.592;2022-10-31T04:19:41;9.98;;;5.03;;
74650;SDS011;63169;46.042;14.592;2022-10-31T04:22:06;11.35;;;5.18;;
74650;SDS011;63169;46.042;14.592;2022-10-31T04:24:32;10.40;;;4.85;;
74650;SDS011;63169;46.042;14.592;2022-10-31T04:26:57;10.10;;;5.15;;
74650;SDS011;63169;46.042;14.592;2022-10-31T04:29:23;10.90;;;4.72;;
74650;SDS011;63169;46.042;14.592;2022-10-31T04:31:48;10.07;;;5.00;;
74650;SDS011;63169;46.042;14.592;2022-10-31T04:34:13;10.45;;;5.55;;
74650;SDS011;63169;46.042;14.592;2022-10-31T04:36:39;10.50;;;5.30;;
74650;SDS011;63169;46.042;14.592;2022-10-31T04:39:04;11.35;;;6.55;;
74650;SDS011;63169;46.042;14.592;2022-10-31T04:41:29;11.45;;;5.72;;
74650;SDS011;63169;46.042;14.592;2022-10-31T04:43:55;11.57;;;8.27;;
74650;SDS011;63169;46.042;14.592;2022-10-31T04:46:20;14.55;;;7.15;;
74650;SDS011;63169;46.042;14.592;2022-10-31T04:48:45;12.68;;;6.25;;
74650;SDS011;63169;46.042;14.592;2022-10-31T04:51:11;11.75;;;5.35;;
74650;SDS011;63169;46.042;14.592;2022-10-31T04:53:37;10.27;;;5.65;;
74650;SDS011;63169;46.042;14.592;2022-10-31T04:56:03;10.68;;;5.65;;
74650;SDS011;63169;46.042;14.592;2022-10-31T04:58:28;12.27;;;5.85;;
74650;SDS011;63169;46.042;14.592;2022-10-31T05:00:54;10.23;;;5.28;;
74650;SDS011;63169;46.042;14.592;2022-10-31T05:03:19;10.52;;;6.10;;
74650;SDS011;63169;46.042;14.592;2022-10-31T05:05:45;12.75;;;6.28;;
74650;SDS011;63169;46.042;14.592;2022-10-31T05:08:10;12.55;;;6.72;;
74650;SDS011;63169;46.042;14.592;2022-10-31T05:10:35;13.45;;;7.45;;
74650;SDS011;63169;46.042;14.592;2022-10-31T05:13:02;13.30;;;6.95;;
74650;SDS011;63169;46.042;14.592;2022-10-31T05:15:28;13.10;;;6.13;;
74650;SDS011;63169;46.042;14.592;2022-10-31T05:17:53;12.35;;;5.72;;
74650;SDS011;63169;46.042;14.592;2022-10-31T05:20:20;15.32;;;6.32;;
74650;SDS011;63169;46.042;14.592;2022-10-31T05:22:47;13.07;;;6.97;;
74650;SDS011;63169;46.042;14.592;2022-10-31T05:25:14;15.60;;;6.43;;
74650;SDS011;63169;46.042;14.592;2022-10-31T05:27:40;12.98;;;7.30;;
74650;SDS011;63169;46.042;14.592;2022-10-31T05:30:06;11.70;;;6.03;;
74650;SDS011;63169;46.042;14.592;2022-10-31T05:32:42;11.88;;;6.53;;
74650;SDS011;63169;46.042;14.592;2022-10-31T05:35:10;16.63;;;6.55;;
74650;SDS011;63169;46.042;14.592;2022-10-31T05:37:36;15.95;;;6.75;;
74650;SDS011;63169;46.042;14.592;2022-10-31T05:40:02;10.77;;;6.45;;
74650;SDS011;63169;46.042;14.592;2022-10-31T05:42:28;11.50;;;6.07;;
74650;SDS011;63169;46.042;14.592;2022-10-31T05:44:53;10.80;;;6.05;;
74650;SDS011;63169;46.042;14.592;2022-10-31T05:47:19;12.57;;;6.55;;
74650;SDS011;63169;46.042;14.592;2022-10-31T05:49:44;10.38;;;6.55;;
74650;SDS011;63169;46.042;14.592;2022-10-31T05:52:09;14.23;;;6.88;;
74650;SDS011;63169;46.042;14.592;2022-10-31T05:54:35;12.30;;;7.47;;
74650;SDS011;63169;46.042;14.592;2022-10-31T05:57:00;12.32;;;6.38;;
74650;SDS011;63169;46.042;14.592;2022-10-31T05:59:26;14.68;;;5.88;;
74650;SDS011;63169;46.042;14.592;2022-10-31T06:01:51;10.23;;;5.95;;
74650;SDS011;63169;46.042;14.592;2022-10-31T06:04:16;11.05;;;6.55;;
74650;SDS011;63169;46.042;14.592;2022-10-31T06:06:42;12.23;;;6.22;;
74650;SDS011;63169;46.042;14.592;2022-10-31T06:09:07;12.48;;;6.43;;
74650;SDS011;63169;46.042;14.592;2022-10-31T06:11:32;16.73;;;6.57;;
74650;SDS011;63169;46.042;14.592;2022-10-31T06:13:58;11.05;;;6.22;;
74650;SDS011;63169;46.042;14.592;2022-10-31T06:16:23;11.00;;;5.88;;
74650;SDS011;63169;46.042;14.592;2022-10-31T06:18:48;16.58;;;7.22;;
74650;SDS011;63169;46.042;14.592;2022-10-31T06:21:14;11.70;;;6.68;;
74650;SDS011;63169;46.042;14.592;2022-10-31T06:23:40;15.13;;;7.07;;
74650;SDS011;63169;46.042;14.592;2022-10-31T06:26:05;12.98;;;6.78;;
74650;SDS011;63169;46.042;14.592;2022-10-31T06:28:30;12.02;;;7.15;;
74650;SDS011;63169;46.042;14.592;2022-10-31T06:30:56;16.20;;;6.82;;
74650;SDS011;63169;46.042;14.592;2022-10-31T06:33:21;12.55;;;7.45;;
74650;SDS011;63169;46.042;14.592;2022-10-31T06:35:46;13.85;;;6.75;;
74650;SDS011;63169;46.042;14.592;2022-10-31T06:38:12;13.43;;;7.07;;
74650;SDS011;63169;46.042;14.592;2022-10-31T06:40:38;12.75;;;6.68;;
74650;SDS011;63169;46.042;14.592;2022-10-31T06:43:04;15.48;;;7.13;;
74650;SDS011;63169;46.042;14.592;2022-10-31T06:45:29;16.83;;;7.60;;
74650;SDS011;63169;46.042;14.592;2022-10-31T06:47:54;10.50;;;6.05;;
74650;SDS011;63169;46.042;14.592;2022-10-31T06:50:21;13.05;;;7.28;;
74650;SDS011;63169;46.042;14.592;2022-10-31T06:52:53;12.93;;;6.07;;
74650;SDS011;63169;46.042;14.592;2022-10-31T06:57:51;16.27;;;6.78;;
74650;SDS011;63169;46.042;14.592;2022-10-31T07:00:21;9.13;;;5.43;;
74650;SDS011;63169;46.042;14.592;2022-10-31T07:02:59;9.88;;;5.78;;
74650;SDS011;63169;46.042;14.592;2022-10-31T07:05:26;16.27;;;10.40;;
74650;SDS011;63169;46.042;14.592;2022-10-31T07:07:52;13.02;;;5.88;;
74650;SDS011;63169;46.042;14.592;2022-10-31T07:10:22;12.82;;;7.10;;
74650;SDS011;63169;46.042;14.592;2022-10-31T07:15:13;13.37;;;7.67;;
74650;SDS011;63169;46.042;14.592;2022-10-31T07:17:39;9.30;;;5.47;;
74650;SDS011;63169;46.042;14.592;2022-10-31T07:20:04;10.10;;;5.68;;
74650;SDS011;63169;46.042;14.592;2022-10-31T07:22:34;8.48;;;5.15;;
74650;SDS011;63169;46.042;14.592;2022-10-31T07:25:00;10.00;;;4.95;;
74650;SDS011;63169;46.042;14.592;2022-10-31T07:27:25;11.45;;;5.38;;
74650;SDS011;63169;46.042;14.592;2022-10-31T07:29:50;12.07;;;8.68;;
74650;SDS011;63169;46.042;14.592;2022-10-31T07:32:16;9.68;;;5.10;;
74650;SDS011;63169;46.042;14.592;2022-10-31T07:34:41;11.05;;;5.97;;
74650;SDS011;63169;46.042;14.592;2022-10-31T07:37:07;8.98;;;5.90;;
74650;SDS011;63169;46.042;14.592;2022-10-31T07:39:32;9.27;;;7.03;;
74650;SDS011;63169;46.042;14.592;2022-10-31T07:41:58;10.57;;;6.78;;
74650;SDS011;63169;46.042;14.592;2022-10-31T07:44:23;8.93;;;5.88;;
74650;SDS011;63169;46.042;14.592;2022-10-31T07:46:49;9.20;;;6.30;;
74650;SDS011;63169;46.042;14.592;2022-10-31T07:49:14;8.00;;;5.82;;
74650;SDS011;63169;46.042;14.592;2022-10-31T07:51:39;9.48;;;7.13;;
74650;SDS011;63169;46.042;14.592;2022-10-31T07:54:05;11.00;;;6.18;;
74650;SDS011;63169;46.042;14.592;2022-10-31T07:56:30;8.10;;;5.82;;
74650;SDS011;63169;46.042;14.592;2022-10-31T07:58:55;8.82;;;5.60;;
74650;SDS011;63169;46.042;14.592;2022-10-31T08:01:21;6.32;;;4.63;;
74650;SDS011;63169;46.042;14.592;2022-10-31T08:03:46;7.90;;;5.28;;
74650;SDS011;63169;46.042;14.592;2022-10-31T08:06:11;7.47;;;5.13;;
74650;SDS011;63169;46.042;14.592;2022-10-31T08:08:37;10.63;;;6.57;;
74650;SDS011;63169;46.042;14.592;2022-10-31T08:11:02;7.07;;;5.35;;
74650;SDS011;63169;46.042;14.592;2022-10-31T08:13:28;8.73;;;4.88;;
74650;SDS011;63169;46.042;14.592;2022-10-31T08:15:53;9.13;;;5.97;;
74650;SDS011;63169;46.042;14.592;2022-10-31T08:18:19;9.55;;;6.35;;
74650;SDS011;63169;46.042;14.592;2022-10-31T08:20:46;9.25;;;6.25;;
74650;SDS011;63169;46.042;14.592;2022-10-31T08:23:12;9.93;;;6.43;;
74650;SDS011;63169;46.042;14.592;2022-10-31T08:25:38;10.55;;;7.60;;
74650;SDS011;63169;46.042;14.592;2022-10-31T08:28:04;9.38;;;6.13;;
74650;SDS011;63169;46.042;14.592;2022-10-31T08:30:31;10.63;;;7.28;;
74650;SDS011;63169;46.042;14.592;2022-10-31T08:32:58;19.70;;;13.32;;
74650;SDS011;63169;46.042;14.592;2022-10-31T08:35:31;14.68;;;8.80;;
74650;SDS011;63169;46.042;14.592;2022-10-31T08:37:57;15.18;;;8.10;;
74650;SDS011;63169;46.042;14.592;2022-10-31T08:40:23;14.77;;;8.77;;
74650;SDS011;63169;46.042;14.592;2022-10-31T08:42:59;14.93;;;8.70;;
74650;SDS011;63169;46.042;14.592;2022-10-31T08:45:26;14.38;;;8.68;;
74650;SDS011;63169;46.042;14.592;2022-10-31T08:47:52;13.40;;;8.45;;
74650;SDS011;63169;46.042;14.592;2022-10-31T08:50:22;17.52;;;9.00;;
74650;SDS011;63169;46.042;14.592;2022-10-31T08:52:47;47.58;;;15.90;;
74650;SDS011;63169;46.042;14.592;2022-10-31T08:55:12;59.30;;;18.30;;
74650;SDS011;63169;46.042;14.592;2022-10-31T08:57:38;24.70;;;10.73;;
74650;SDS011;63169;46.042;14.592;2022-10-31T09:00:04;19.15;;;11.60;;
74650;SDS011;63169;46.042;14.592;2022-10-31T09:02:30;19.33;;;10.30;;
74650;SDS011;63169;46.042;14.592;2022-10-31T09:04:55;19.60;;;10.95;;
74650;SDS011;63169;46.042;14.592;2022-10-31T09:07:21;18.15;;;10.27;;
74650;SDS011;63169;46.042;14.592;2022-10-31T09:09:46;19.08;;;11.57;;
74650;SDS011;63169;46.042;14.592;2022-10-31T09:12:11;16.67;;;10.45;;
74650;SDS011;63169;46.042;14.592;2022-10-31T09:14:37;15.00;;;10.00;;
74650;SDS011;63169;46.042;14.592;2022-10-31T09:17:02;14.75;;;9.63;;
74650;SDS011;63169;46.042;14.592;2022-10-31T09:19:27;17.90;;;11.38;;
74650;SDS011;63169;46.042;14.592;2022-10-31T09:21:53;16.98;;;10.05;;
74650;SDS011;63169;46.042;14.592;2022-10-31T09:24:19;16.40;;;10.93;;
74650;SDS011;63169;46.042;14.592;2022-10-31T09:26:44;16.92;;;10.95;;
74650;SDS011;63169;46.042;14.592;2022-10-31T09:29:09;17.55;;;12.00;;
74650;SDS011;63169;46.042;14.592;2022-10-31T09:31:35;20.52;;;10.65;;
74650;SDS011;63169;46.042;14.592;2022-10-31T09:34:00;17.80;;;10.60;;
74650;SDS011;63169;46.042;14.592;2022-10-31T09:36:26;15.18;;;10.05;;
74650;SDS011;63169;46.042;14.592;2022-10-31T09:38:51;14.68;;;10.52;;
74650;SDS011;63169;46.042;14.592;2022-10-31T09:52:35;15.32;;;10.25;;
74650;SDS011;63169;46.042;14.592;2022-10-31T09:55:03;15.23;;;9.65;;
74650;SDS011;63169;46.042;14.592;2022-10-31T09:57:34;15.65;;;9.93;;
74650;SDS011;63169;46.042;14.592;2022-10-31T10:00:03;14.27;;;9.63;;
74650;SDS011;63169;46.042;14.592;2022-10-31T10:02:37;23.25;;;17.50;;
74650;SDS011;63169;46.042;14.592;2022-10-31T10:24:18;12.73;;;10.80;;
74650;SDS011;63169;46.042;14.592;2022-10-31T10:30:17;14.18;;;9.05;;
74650;SDS011;63169;46.042;14.592;2022-10-31T10:32:54;15.50;;;9.55;;
74650;SDS011;63169;46.042;14.592;2022-10-31T10:38:03;13.40;;;9.32;;
74650;SDS011;63169;46.042;14.592;2022-10-31T10:40:36;16.25;;;9.43;;
74650;SDS011;63169;46.042;14.592;2022-10-31T10:49:00;10.50;;;8.32;;
74650;SDS011;63169;46.042;14.592;2022-10-31T10:54:06;12.65;;;7.47;;
74650;SDS011;63169;46.042;14.592;2022-10-31T10:59:36;10.85;;;5.30;;
74650;SDS011;63169;46.042;14.592;2022-10-31T11:02:02;11.20;;;6.10;;
74650;SDS011;63169;46.042;14.592;2022-10-31T11:04:33;10.43;;;5.40;;
74650;SDS011;63169;46.042;14.592;2022-10-31T11:07:07;9.40;;;5.88;;
74650;SDS011;63169;46.042;14.592;2022-10-31T11:09:34;12.05;;;6.68;;
74650;SDS011;63169;46.042;14.592;2022-10-31T11:12:05;10.10;;;5.38;;
74650;SDS011;63169;46.042;14.592;2022-10-31T11:14:35;10.25;;;5.65;;
74650;SDS011;63169;46.042;14.592;2022-10-31T11:20:25;9.25;;;4.90;;
74650;SDS011;63169;46.042;14.592;2022-10-31T11:23:00;9.68;;;3.97;;
74650;SDS011;63169;46.042;14.592;2022-10-31T11:25:30;7.10;;;3.38;;
74650;SDS011;63169;46.042;14.592;2022-10-31T11:30:25;7.10;;;4.10;;
74650;SDS011;63169;46.042;14.592;2022-10-31T11:32:50;9.52;;;3.70;;
74650;SDS011;63169;46.042;14.592;2022-10-31T11:35:17;10.75;;;4.80;;
74650;SDS011;63169;46.042;14.592;2022-10-31T11:37:44;12.00;;;3.90;;
74650;SDS011;63169;46.042;14.592;2022-10-31T11:40:14;14.63;;;5.15;;
74650;SDS011;63169;46.042;14.592;2022-10-31T11:42:41;9.40;;;4.47;;
74650;SDS011;63169;46.042;14.592;2022-10-31T11:45:17;11.25;;;4.85;;
74650;SDS011;63169;46.042;14.592;2022-10-31T11:47:52;13.52;;;4.85;;
74650;SDS011;63169;46.042;14.592;2022-10-31T11:50:21;13.40;;;4.53;;
74650;SDS011;63169;46.042;14.592;2022-10-31T11:52:48;13.15;;;5.18;;
74650;SDS011;63169;46.042;14.592;2022-10-31T11:57:45;7.38;;;3.53;;
74650;SDS011;63169;46.042;14.592;2022-10-31T12:00:25;10.30;;;4.00;;
74650;SDS011;63169;46.042;14.592;2022-10-31T12:05:47;6.68;;;3.22;;
74650;SDS011;63169;46.042;14.592;2022-10-31T12:08:17;9.27;;;3.38;;
74650;SDS011;63169;46.042;14.592;2022-10-31T12:10:52;8.18;;;2.80;;
74650;SDS011;63169;46.042;14.592;2022-10-31T12:16:26;8.55;;;2.90;;
74650;SDS011;63169;46.042;14.592;2022-10-31T12:18:59;11.18;;;4.50;;
74650;SDS011;63169;46.042;14.592;2022-10-31T12:30:00;8.48;;;2.78;;
74650;SDS011;63169;46.042;14.592;2022-10-31T12:57:23;8.20;;;2.60;;
74650;SDS011;63169;46.042;14.592;2022-10-31T12:59:59;10.50;;;2.90;;
74650;SDS011;63169;46.042;14.592;2022-10-31T13:02:41;6.28;;;3.10;;
74650;SDS011;63169;46.042;14.592;2022-10-31T13:05:16;6.43;;;2.72;;
74650;SDS011;63169;46.042;14.592;2022-10-31T13:08:07;7.50;;;2.47;;
74650;SDS011;63169;46.042;14.592;2022-10-31T13:10:47;9.43;;;3.97;;
74650;SDS011;63169;46.042;14.592;2022-10-31T13:15:54;7.25;;;3.42;;
74650;SDS011;63169;46.042;14.592;2022-10-31T13:18:27;9.10;;;3.10;;
74650;SDS011;63169;46.042;14.592;2022-10-31T13:20:57;12.15;;;3.63;;
74650;SDS011;63169;46.042;14.592;2022-10-31T13:23:29;6.20;;;3.38;;
74650;SDS011;63169;46.042;14.592;2022-10-31T13:26:01;14.27;;;3.15;;
74650;SDS011;63169;46.042;14.592;2022-10-31T13:31:25;11.85;;;2.97;;
74650;SDS011;63169;46.042;14.592;2022-10-31T13:33:55;9.82;;;3.58;;
74650;SDS011;63169;46.042;14.592;2022-10-31T13:36:30;10.20;;;3.42;;
74650;SDS011;63169;46.042;14.592;2022-10-31T13:41:51;7.30;;;2.85;;
74650;SDS011;63169;46.042;14.592;2022-10-31T13:44:22;8.23;;;2.63;;
74650;SDS011;63169;46.042;14.592;2022-10-31T13:46:52;9.15;;;3.45;;
74650;SDS011;63169;46.042;14.592;2022-10-31T13:51:53;10.65;;;3.47;;
74650;SDS011;63169;46.042;14.592;2022-10-31T13:54:33;7.60;;;2.97;;
74650;SDS011;63169;46.042;14.592;2022-10-31T13:56:59;7.78;;;3.17;;
74650;SDS011;63169;46.042;14.592;2022-10-31T13:59:28;9.35;;;3.28;;
74650;SDS011;63169;46.042;14.592;2022-10-31T14:01:58;8.68;;;4.03;;
74650;SDS011;63169;46.042;14.592;2022-10-31T14:04:47;7.43;;;3.75;;
74650;SDS011;63169;46.042;14.592;2022-10-31T14:07:18;10.10;;;3.95;;
74650;SDS011;63169;46.042;14.592;2022-10-31T14:09:55;13.27;;;4.18;;
74650;SDS011;63169;46.042;14.592;2022-10-31T14:15:14;13.27;;;4.30;;
74650;SDS011;63169;46.042;14.592;2022-10-31T14:18:01;7.30;;;3.15;;
74650;SDS011;63169;46.042;14.592;2022-10-31T14:25:53;8.07;;;3.00;;
74650;SDS011;63169;46.042;14.592;2022-10-31T14:28:32;7.45;;;3.45;;
74650;SDS011;63169;46.042;14.592;2022-10-31T14:30:59;9.68;;;3.33;;
74650;SDS011;63169;46.042;14.592;2022-10-31T14:33:26;9.20;;;3.13;;
74650;SDS011;63169;46.042;14.592;2022-10-31T14:36:00;9.50;;;4.13;;
74650;SDS011;63169;46.042;14.592;2022-10-31T14:38:31;9.80;;;3.33;;
74650;SDS011;63169;46.042;14.592;2022-10-31T14:41:33;8.23;;;4.40;;
74650;SDS011;63169;46.042;14.592;2022-10-31T14:47:09;12.38;;;4.15;;
74650;SDS011;63169;46.042;14.592;2022-10-31T14:52:08;9.75;;;4.45;;
74650;SDS011;63169;46.042;14.592;2022-10-31T14:54:39;12.15;;;4.88;;
74650;SDS011;63169;46.042;14.592;2022-10-31T14:57:43;10.98;;;4.40;;
74650;SDS011;63169;46.042;14.592;2022-10-31T15:00:03;10.52;;;5.07;;
74650;SDS011;63169;46.042;14.592;2022-10-31T15:02:32;8.75;;;4.68;;
74650;SDS011;63169;46.042;14.592;2022-10-31T15:05:05;8.35;;;3.88;;
74650;SDS011;63169;46.042;14.592;2022-10-31T15:07:35;10.38;;;4.53;;
74650;SDS011;63169;46.042;14.592;2022-10-31T15:10:06;9.02;;;4.00;;
74650;SDS011;63169;46.042;14.592;2022-10-31T15:12:44;9.07;;;4.22;;
74650;SDS011;63169;46.042;14.592;2022-10-31T15:15:12;9.20;;;3.47;;
74650;SDS011;63169;46.042;14.592;2022-10-31T15:17:43;8.60;;;3.80;;
74650;SDS011;63169;46.042;14.592;2022-10-31T15:20:17;11.35;;;4.43;;
74650;SDS011;63169;46.042;14.592;2022-10-31T15:22:43;9.20;;;3.80;;
74650;SDS011;63169;46.042;14.592;2022-10-31T15:25:17;7.70;;;2.60;;
74650;SDS011;63169;46.042;14.592;2022-10-31T15:27:50;10.60;;;3.83;;
74650;SDS011;63169;46.042;14.592;2022-10-31T15:30:17;8.45;;;3.55;;
74650;SDS011;63169;46.042;14.592;2022-10-31T15:32:46;12.50;;;4.85;;
74650;SDS011;63169;46.042;14.592;2022-10-31T15:35:18;8.95;;;3.70;;
74650;SDS011;63169;46.042;14.592;2022-10-31T15:37:45;11.70;;;4.30;;
74650;SDS011;63169;46.042;14.592;2022-10-31T15:40:15;9.68;;;4.10;;
74650;SDS011;63169;46.042;14.592;2022-10-31T15:42:43;8.95;;;3.22;;
74650;SDS011;63169;46.042;14.592;2022-10-31T15:45:21;7.30;;;3.53;;
74650;SDS011;63169;46.042;14.592;2022-10-31T15:47:53;10.20;;;4.38;;
74650;SDS011;63169;46.042;14.592;2022-10-31T15:50:30;12.02;;;3.35;;
74650;SDS011;63169;46.042;14.592;2022-10-31T15:52:56;9.00;;;3.28;;
74650;SDS011;63169;46.042;14.592;2022-10-31T15:55:26;7.90;;;2.90;;
74650;SDS011;63169;46.042;14.592;2022-10-31T15:57:57;7.55;;;3.60;;
74650;SDS011;63169;46.042;14.592;2022-10-31T16:00:32;12.32;;;3.95;;
74650;SDS011;63169;46.042;14.592;2022-10-31T16:05:44;11.70;;;4.53;;
74650;SDS011;63169;46.042;14.592;2022-10-31T16:13:14;11.63;;;4.50;;
74650;SDS011;63169;46.042;14.592;2022-10-31T16:15:46;10.00;;;4.95;;
74650;SDS011;63169;46.042;14.592;2022-10-31T16:18:13;9.98;;;4.90;;
74650;SDS011;63169;46.042;14.592;2022-10-31T16:20:39;10.20;;;4.97;;
74650;SDS011;63169;46.042;14.592;2022-10-31T16:23:04;20.70;;;8.70;;
74650;SDS011;63169;46.042;14.592;2022-10-31T16:25:34;11.48;;;5.47;;
74650;SDS011;63169;46.042;14.592;2022-10-31T16:28:03;12.35;;;5.07;;
74650;SDS011;63169;46.042;14.592;2022-10-31T16:33:19;8.30;;;4.10;;
74650;SDS011;63169;46.042;14.592;2022-10-31T16:36:00;11.00;;;4.10;;
74650;SDS011;63169;46.042;14.592;2022-10-31T16:38:27;7.68;;;4.10;;
74650;SDS011;63169;46.042;14.592;2022-10-31T16:40:52;10.77;;;4.63;;
74650;SDS011;63169;46.042;14.592;2022-10-31T16:43:19;9.88;;;4.78;;
74650;SDS011;63169;46.042;14.592;2022-10-31T16:45:46;8.63;;;4.07;;
74650;SDS011;63169;46.042;14.592;2022-10-31T16:48:14;11.40;;;4.35;;
74650;SDS011;63169;46.042;14.592;2022-10-31T16:50:41;9.43;;;5.00;;
74650;SDS011;63169;46.042;14.592;2022-10-31T16:53:08;10.23;;;4.30;;
74650;SDS011;63169;46.042;14.592;2022-10-31T16:55:33;10.02;;;4.68;;
74650;SDS011;63169;46.042;14.592;2022-10-31T16:58:01;10.18;;;5.88;;
74650;SDS011;63169;46.042;14.592;2022-10-31T17:00:27;13.70;;;6.72;;
74650;SDS011;63169;46.042;14.592;2022-10-31T17:02:53;13.40;;;6.25;;
74650;SDS011;63169;46.042;14.592;2022-10-31T17:05:21;11.57;;;6.22;;
74650;SDS011;63169;46.042;14.592;2022-10-31T17:10:19;9.10;;;4.00;;
74650;SDS011;63169;46.042;14.592;2022-10-31T17:12:45;11.52;;;4.25;;
74650;SDS011;63169;46.042;14.592;2022-10-31T17:15:19;11.75;;;5.05;;
74650;SDS011;63169;46.042;14.592;2022-10-31T17:17:45;10.43;;;5.57;;